createdAt,value
2022-09-24T00:01:36.594Z,13.70
2022-09-24T00:04:07.366Z,13.45
2022-09-24T00:06:41.924Z,13.88
2022-09-24T00:09:11.514Z,14.88
2022-09-24T00:11:40.799Z,14.55
2022-09-24T00:14:08.722Z,13.95
2022-09-24T00:16:37.178Z,13.55
2022-09-24T00:19:06.607Z,14.65
2022-09-24T00:21:36.449Z,13.63
2022-09-24T00:24:07.472Z,13.38
2022-09-24T00:26:54.564Z,13.80
2022-09-24T00:29:25.219Z,14.52
2022-09-24T00:31:54.616Z,13.93
2022-09-24T00:34:22.539Z,13.40
2022-09-24T00:36:50.941Z,13.57
2022-09-24T00:39:19.534Z,13.63
2022-09-24T00:41:49.805Z,14.65
2022-09-24T00:44:51.440Z,15.07
2022-09-24T00:47:40.701Z,13.77
2022-09-24T00:50:29.199Z,13.55
2022-09-24T00:52:58.717Z,13.98
2022-09-24T00:55:27.839Z,13.65
2022-09-24T00:58:01.179Z,14.27
2022-09-24T01:00:30.754Z,13.52
2022-09-24T01:03:14.012Z,14.82
2022-09-24T01:08:18.009Z,12.65
2022-09-24T01:11:10.564Z,12.60
2022-09-24T01:14:06.796Z,13.43
2022-09-24T01:16:41.191Z,13.38
2022-09-24T01:19:40.301Z,12.63
2022-09-24T01:22:37.810Z,13.30
2022-09-24T01:25:43.703Z,13.10
2022-09-24T01:28:50.758Z,13.70
2022-09-24T01:31:48.364Z,13.68
2022-09-24T01:34:21.261Z,13.25
2022-09-24T01:36:50.883Z,12.68
2022-09-24T01:39:19.780Z,13.15
2022-09-24T01:41:48.260Z,12.48
2022-09-24T01:44:19.056Z,13.15
2022-09-24T01:46:47.544Z,12.50
2022-09-24T01:49:15.933Z,12.70
2022-09-24T01:51:59.574Z,13.98
2022-09-24T01:54:31.480Z,14.52
2022-09-24T01:57:22.505Z,12.93
2022-09-24T02:00:00.855Z,12.27
2022-09-24T02:02:38.155Z,12.55
2022-09-24T02:05:19.789Z,12.77
2022-09-24T02:07:51.379Z,12.65
2022-09-24T02:10:21.280Z,12.40
2022-09-24T02:12:54.535Z,13.40
2022-09-24T02:15:32.550Z,12.98
2022-09-24T02:18:05.431Z,11.70
2022-09-24T02:20:36.174Z,13.05
2022-09-24T02:23:05.025Z,12.05
2022-09-24T02:25:42.567Z,12.95
2022-09-24T02:28:10.911Z,13.38
2022-09-24T02:30:42.560Z,13.18
2022-09-24T02:33:32.979Z,13.48
2022-09-24T02:36:01.509Z,12.52
2022-09-24T02:38:29.542Z,12.38
2022-09-24T02:40:57.450Z,12.95
2022-09-24T02:43:26.143Z,13.35
2022-09-24T02:45:54.809Z,12.80
2022-09-24T02:48:22.299Z,13.10
2022-09-24T02:50:51.012Z,13.27
2022-09-24T02:53:19.496Z,14.45
2022-09-24T02:55:48.243Z,14.00
2022-09-24T02:58:16.685Z,14.38
2022-09-24T03:00:44.345Z,14.90
2022-09-24T03:03:12.178Z,14.43
2022-09-24T03:05:39.953Z,14.85
2022-09-24T03:08:08.364Z,14.80
2022-09-24T03:10:36.224Z,16.33
2022-09-24T03:13:05.224Z,16.05
2022-09-24T03:15:33.133Z,16.70
2022-09-24T03:18:00.967Z,16.65
2022-09-24T03:20:28.933Z,16.60
2022-09-24T03:22:57.145Z,16.77
2022-09-24T03:25:25.780Z,16.75
2022-09-24T03:27:54.274Z,15.95
2022-09-24T03:30:40.878Z,16.63
2022-09-24T03:33:09.130Z,17.27
2022-09-24T03:35:36.901Z,16.83
2022-09-24T03:38:05.845Z,17.00
2022-09-24T03:40:34.644Z,17.17
2022-09-24T03:43:04.374Z,18.08
2022-09-24T03:45:32.014Z,17.95
2022-09-24T03:48:00.298Z,17.85
2022-09-24T03:50:27.981Z,17.42
2022-09-24T03:52:56.145Z,18.17
2022-09-24T03:55:24.217Z,19.67
2022-09-24T03:57:52.508Z,18.70
2022-09-24T04:00:20.506Z,18.63
2022-09-24T04:02:50.229Z,18.83
2022-09-24T04:05:18.414Z,18.48
2022-09-24T04:07:46.120Z,18.13
2022-09-24T04:10:13.953Z,18.58
2022-09-24T04:12:43.804Z,19.38
2022-09-24T04:15:12.081Z,19.70
2022-09-24T04:17:40.853Z,18.90
2022-09-24T04:20:09.611Z,19.27
2022-09-24T04:22:38.060Z,19.25
2022-09-24T04:25:09.217Z,19.17
2022-09-24T04:27:41.551Z,18.63
2022-09-24T04:30:10.877Z,19.98
2022-09-24T04:32:39.475Z,19.73
2022-09-24T04:35:08.525Z,20.38
2022-09-24T04:37:38.305Z,19.85
2022-09-24T04:40:13.354Z,23.13
2022-09-24T04:42:42.119Z,23.48
2022-09-24T04:45:11.121Z,24.35
2022-09-24T04:47:40.625Z,25.45
2022-09-24T04:50:12.051Z,25.67
2022-09-24T04:52:40.462Z,25.58
2022-09-24T04:55:08.638Z,25.60
2022-09-24T04:57:37.163Z,26.10
2022-09-24T05:00:08.879Z,27.13
2022-09-24T05:02:37.423Z,25.58
2022-09-24T05:05:06.119Z,27.00
2022-09-24T05:07:34.383Z,27.25
2022-09-24T05:10:02.920Z,28.35
2022-09-24T05:12:31.785Z,30.83
2022-09-24T05:14:59.762Z,27.38
2022-09-24T05:17:27.382Z,29.48
2022-09-24T05:19:57.999Z,29.75
2022-09-24T05:22:28.159Z,31.15
2022-09-24T05:24:56.183Z,29.15
2022-09-24T05:27:24.667Z,32.75
2022-09-24T05:29:52.725Z,30.42
2022-09-24T05:32:21.117Z,30.33
2022-09-24T05:34:49.669Z,32.05
2022-09-24T05:37:18.307Z,32.25
2022-09-24T05:39:46.818Z,36.17
2022-09-24T05:42:15.475Z,41.22
2022-09-24T05:44:47.385Z,33.95
2022-09-24T05:47:19.544Z,31.30
2022-09-24T05:49:47.355Z,32.28
2022-09-24T05:52:15.730Z,35.10
2022-09-24T05:54:43.571Z,32.38
2022-09-24T05:57:15.994Z,31.88
2022-09-24T05:59:43.874Z,32.37
2022-09-24T06:02:12.258Z,33.58
2022-09-24T06:04:40.847Z,34.25
2022-09-24T06:07:08.596Z,36.42
2022-09-24T06:09:38.209Z,42.72
2022-09-24T06:12:11.487Z,40.65
2022-09-24T06:14:43.084Z,43.22
2022-09-24T06:17:11.791Z,38.88
2022-09-24T06:19:39.754Z,33.90
2022-09-24T06:22:08.105Z,34.05
2022-09-24T06:24:35.916Z,30.23
2022-09-24T06:27:04.543Z,29.02
2022-09-24T06:29:33.595Z,26.98
2022-09-24T06:32:02.614Z,23.27
2022-09-24T06:34:30.675Z,22.15
2022-09-24T06:36:59.091Z,23.42
2022-09-24T06:39:29.057Z,22.63
2022-09-24T06:41:59.319Z,23.23
2022-09-24T06:44:35.550Z,21.67
2022-09-24T06:47:04.213Z,20.77
2022-09-24T06:49:34.343Z,22.83
2022-09-24T06:52:02.866Z,23.15
2022-09-24T06:54:31.117Z,23.50
2022-09-24T06:56:58.848Z,24.50
2022-09-24T06:59:27.304Z,24.85
2022-09-24T07:01:56.113Z,22.98
2022-09-24T07:04:24.554Z,22.58
2022-09-24T07:07:10.189Z,22.67
2022-09-24T07:09:40.870Z,22.83
2022-09-24T07:12:09.029Z,21.13
2022-09-24T07:14:36.693Z,20.55
2022-09-24T07:17:05.209Z,21.45
2022-09-24T07:19:33.285Z,20.20
2022-09-24T07:22:01.474Z,20.20
2022-09-24T07:24:29.436Z,18.98
2022-09-24T07:26:57.785Z,18.65
2022-09-24T07:29:25.788Z,16.77
2022-09-24T07:31:54.041Z,16.38
2022-09-24T07:34:21.911Z,15.07
2022-09-24T07:36:50.250Z,15.63
2022-09-24T07:39:19.019Z,15.75
2022-09-24T07:41:47.761Z,15.25
2022-09-24T07:44:16.128Z,16.10
2022-09-24T07:46:44.076Z,15.45
2022-09-24T07:49:11.806Z,13.35
2022-09-24T07:51:39.396Z,12.80
2022-09-24T07:54:07.794Z,13.43
2022-09-24T07:56:35.572Z,12.38
2022-09-24T07:59:06.973Z,11.75
2022-09-24T08:01:35.539Z,11.80
2022-09-24T08:04:05.192Z,14.27
2022-09-24T08:06:39.579Z,13.95
2022-09-24T08:09:09.631Z,12.50
2022-09-24T08:11:38.066Z,6.95
2022-09-24T08:14:06.932Z,7.47
2022-09-24T08:16:35.283Z,8.52
2022-09-24T08:19:03.810Z,8.52
2022-09-24T08:21:32.560Z,9.05
2022-09-24T08:24:01.348Z,9.57
2022-09-24T08:26:29.368Z,8.82
2022-09-24T08:28:58.877Z,9.45
2022-09-24T08:31:27.773Z,8.10
2022-09-24T08:33:56.046Z,9.02
2022-09-24T08:36:24.001Z,7.82
2022-09-24T08:38:57.630Z,8.60
2022-09-24T08:41:51.113Z,7.57
2022-09-24T08:44:57.701Z,6.85
2022-09-24T08:47:51.158Z,6.80
2022-09-24T08:50:28.552Z,7.82
2022-09-24T08:53:06.784Z,8.15
2022-09-24T08:56:04.823Z,7.75
2022-09-24T08:58:47.200Z,6.63
2022-09-24T09:01:25.295Z,6.65
2022-09-24T09:03:57.579Z,6.10
2022-09-24T09:06:50.125Z,5.60
2022-09-24T09:09:34.351Z,5.82
2022-09-24T09:12:06.511Z,5.95
2022-09-24T09:14:50.007Z,6.32
2022-09-24T09:17:25.821Z,5.93
2022-09-24T09:20:02.074Z,6.65
2022-09-24T09:22:35.608Z,6.65
2022-09-24T09:25:26.100Z,6.35
2022-09-24T09:28:03.314Z,5.32
2022-09-24T09:30:39.920Z,5.07
2022-09-24T09:33:20.511Z,4.95
2022-09-24T09:36:26.318Z,5.53
2022-09-24T09:39:14.047Z,5.90
2022-09-24T09:41:52.560Z,4.97
2022-09-24T09:44:26.868Z,4.70
2022-09-24T09:47:04.634Z,4.45
2022-09-24T09:49:38.061Z,4.82
2022-09-24T09:52:15.863Z,4.60
2022-09-24T09:54:44.433Z,5.00
2022-09-24T09:57:17.979Z,4.88
2022-09-24T09:59:49.587Z,4.68
2022-09-24T10:02:32.511Z,4.32
2022-09-24T10:05:04.057Z,4.05
2022-09-24T10:07:33.084Z,4.00
2022-09-24T10:10:24.366Z,3.80
2022-09-24T10:13:09.307Z,3.60
2022-09-24T10:15:56.451Z,3.55
2022-09-24T10:18:32.959Z,3.47
2022-09-24T10:21:04.209Z,3.38
2022-09-24T10:23:38.566Z,3.20
2022-09-24T10:26:07.337Z,2.92
2022-09-24T10:28:59.110Z,3.22
2022-09-24T10:31:31.181Z,3.38
2022-09-24T10:34:00.408Z,4.45
2022-09-24T10:36:34.847Z,5.47
2022-09-24T10:39:04.787Z,2.67
2022-09-24T10:41:33.268Z,2.60
2022-09-24T10:44:11.918Z,2.80
2022-09-24T10:46:49.434Z,2.88
2022-09-24T10:49:42.532Z,3.65
2022-09-24T10:52:22.875Z,2.90
2022-09-24T10:54:57.317Z,2.80
2022-09-24T10:57:32.101Z,2.50
2022-09-24T11:00:21.173Z,2.50
2022-09-24T11:03:20.276Z,2.47
2022-09-24T11:06:39.194Z,2.53
2022-09-24T11:09:16.023Z,2.40
2022-09-24T11:11:49.223Z,2.63
2022-09-24T11:14:31.629Z,3.03
2022-09-24T11:17:30.613Z,2.70
2022-09-24T11:20:17.314Z,2.40
2022-09-24T11:23:17.346Z,2.80
2022-09-24T11:26:01.424Z,2.88
2022-09-24T11:28:50.873Z,2.58
2022-09-24T11:31:49.158Z,2.85
2022-09-24T11:34:38.143Z,2.38
2022-09-24T11:37:21.638Z,2.50
2022-09-24T11:40:22.136Z,2.80
2022-09-24T11:43:02.968Z,13.95
2022-09-24T11:45:48.247Z,2.75
2022-09-24T11:48:38.982Z,3.65
2022-09-24T11:51:19.337Z,2.80
2022-09-24T11:54:14.674Z,3.05
2022-09-24T11:56:47.843Z,3.28
2022-09-24T11:59:46.109Z,9.07
2022-09-24T12:02:26.938Z,2.67
2022-09-24T12:05:00.284Z,4.53
2022-09-24T12:10:32.878Z,2.75
2022-09-24T12:13:39.933Z,2.53
2022-09-24T12:16:17.388Z,2.58
2022-09-24T12:19:04.828Z,2.38
2022-09-24T12:21:35.494Z,3.05
2022-09-24T12:24:19.669Z,2.38
2022-09-24T12:26:48.434Z,2.03
2022-09-24T12:29:59.965Z,2.35
2022-09-24T12:32:56.354Z,1.90
2022-09-24T12:35:49.847Z,1.45
2022-09-24T12:38:19.297Z,2.30
2022-09-24T12:41:18.432Z,2.15
2022-09-24T12:43:53.691Z,2.42
2022-09-24T12:46:24.623Z,2.15
2022-09-24T12:48:53.236Z,1.80
2022-09-24T12:51:22.955Z,2.17
2022-09-24T12:54:05.687Z,2.10
2022-09-24T12:56:35.139Z,2.10
2022-09-24T12:59:05.824Z,1.88
2022-09-24T13:01:34.899Z,2.00
2022-09-24T13:04:25.419Z,2.10
2022-09-24T13:06:54.049Z,1.60
2022-09-24T13:09:37.683Z,1.83
2022-09-24T13:12:30.454Z,1.63
2022-09-24T13:15:04.959Z,1.65
2022-09-24T13:17:35.100Z,1.70
2022-09-24T13:20:09.030Z,1.42
2022-09-24T13:22:38.210Z,1.27
2022-09-24T13:25:27.050Z,1.30
2022-09-24T13:28:01.730Z,1.52
2022-09-24T13:30:29.503Z,2.55
2022-09-24T13:33:00.842Z,2.00
2022-09-24T13:35:35.056Z,1.52
2022-09-24T13:38:13.762Z,1.30
2022-09-24T13:40:49.554Z,1.80
2022-09-24T13:43:28.837Z,1.30
2022-09-24T13:45:58.649Z,1.50
2022-09-24T13:48:42.784Z,1.52
2022-09-24T13:51:15.297Z,1.67
2022-09-24T13:53:53.661Z,1.35
2022-09-24T13:56:21.908Z,1.65
2022-09-24T13:58:51.928Z,1.80
2022-09-24T14:01:25.024Z,1.30
2022-09-24T14:03:59.016Z,1.75
2022-09-24T14:06:38.834Z,1.80
2022-09-24T14:09:25.782Z,1.92
2022-09-24T14:11:57.320Z,2.17
2022-09-24T14:14:29.240Z,2.00
2022-09-24T14:17:14.377Z,1.70
2022-09-24T14:19:43.650Z,3.00
2022-09-24T14:22:39.471Z,2.28
2022-09-24T14:25:11.050Z,2.00
2022-09-24T14:27:43.077Z,1.80
2022-09-24T14:32:46.170Z,2.30
2022-09-24T14:35:18.755Z,2.10
2022-09-24T14:37:50.395Z,3.00
2022-09-24T14:40:21.870Z,3.00
2022-09-24T14:42:57.660Z,2.25
2022-09-24T14:45:34.779Z,1.95
2022-09-24T14:48:25.258Z,2.00
2022-09-24T14:50:53.797Z,1.70
2022-09-24T14:53:22.667Z,2.55
2022-09-24T14:55:51.020Z,1.98
2022-09-24T14:58:36.675Z,2.00
2022-09-24T15:01:17.924Z,1.90
2022-09-24T15:03:51.810Z,1.60
2022-09-24T15:06:32.724Z,2.20
2022-09-24T15:09:02.924Z,2.13
2022-09-24T15:11:34.974Z,1.90
2022-09-24T15:14:16.422Z,1.80
2022-09-24T15:16:47.187Z,2.20
2022-09-24T15:19:31.288Z,1.75
2022-09-24T15:22:00.402Z,1.85
2022-09-24T15:24:29.921Z,1.92
2022-09-24T15:27:01.498Z,2.80
2022-09-24T15:29:30.140Z,2.65
2022-09-24T15:31:59.465Z,2.92
2022-09-24T15:34:29.255Z,4.35
2022-09-24T15:36:59.786Z,3.35
2022-09-24T15:39:29.252Z,3.13
2022-09-24T15:41:57.187Z,2.90
2022-09-24T15:44:32.883Z,4.00
2022-09-24T15:47:02.119Z,5.05
2022-09-24T15:49:30.182Z,5.80
2022-09-24T15:52:18.563Z,5.93
2022-09-24T15:54:47.331Z,6.25
2022-09-24T15:57:15.401Z,6.75
2022-09-24T15:59:43.384Z,7.57
2022-09-24T16:02:33.197Z,6.82
2022-09-24T16:05:04.087Z,6.68
2022-09-24T16:07:33.334Z,7.03
2022-09-24T16:10:02.197Z,4.65
2022-09-24T16:12:30.574Z,5.70
2022-09-24T16:15:01.228Z,6.95
2022-09-24T16:17:31.228Z,7.50
2022-09-24T16:19:59.413Z,6.53
2022-09-24T16:22:28.283Z,6.32
2022-09-24T16:24:56.272Z,6.80
2022-09-24T16:27:24.387Z,6.72
2022-09-24T16:29:52.955Z,7.10
2022-09-24T16:32:20.967Z,8.00
2022-09-24T16:34:49.343Z,7.63
2022-09-24T16:37:18.854Z,8.07
2022-09-24T16:39:47.981Z,8.10
2022-09-24T16:42:16.165Z,12.90
2022-09-24T16:44:44.757Z,9.52
2022-09-24T16:47:17.212Z,9.30
2022-09-24T16:49:46.447Z,9.85
2022-09-24T16:52:14.278Z,10.55
2022-09-24T16:54:42.844Z,10.02
2022-09-24T16:57:11.485Z,9.90
2022-09-24T16:59:40.168Z,11.18
2022-09-24T17:02:11.824Z,11.15
2022-09-24T17:04:41.719Z,11.13
2022-09-24T17:07:10.989Z,11.38
2022-09-24T17:09:58.756Z,9.95
2022-09-24T17:12:28.573Z,13.82
2022-09-24T17:14:57.791Z,14.77
2022-09-24T17:17:26.996Z,18.60
2022-09-24T17:19:55.671Z,37.45
2022-09-24T17:22:23.586Z,36.88
2022-09-24T17:24:53.174Z,46.85
2022-09-24T17:27:21.704Z,40.42
2022-09-24T17:29:49.619Z,83.22
2022-09-24T17:32:18.109Z,84.80
2022-09-24T17:34:46.755Z,76.50
2022-09-24T17:37:14.614Z,68.75
2022-09-24T17:39:42.950Z,48.17
2022-09-24T17:42:11.889Z,43.78
2022-09-24T17:44:40.196Z,34.03
2022-09-24T17:47:08.243Z,21.75
2022-09-24T17:49:37.798Z,21.50
2022-09-24T17:52:06.212Z,27.13
2022-09-24T17:54:34.928Z,23.45
2022-09-24T17:57:03.397Z,17.38
2022-09-24T17:59:31.454Z,23.55
2022-09-24T18:02:00.525Z,20.30
2022-09-24T18:04:31.440Z,20.58
2022-09-24T18:06:59.611Z,21.63
2022-09-24T18:09:27.512Z,26.63
2022-09-24T18:11:57.186Z,28.33
2022-09-24T18:14:26.627Z,37.53
2022-09-24T18:16:55.025Z,29.67
2022-09-24T18:19:23.781Z,29.38
2022-09-24T18:21:52.584Z,23.42
2022-09-24T18:24:20.978Z,18.75
2022-09-24T18:26:51.950Z,17.10
2022-09-24T18:29:22.362Z,17.10
2022-09-24T18:31:52.057Z,15.48
2022-09-24T18:34:21.408Z,14.57
2022-09-24T18:36:49.304Z,13.55
2022-09-24T18:39:23.691Z,12.43
2022-09-24T18:41:54.311Z,15.50
2022-09-24T18:44:22.938Z,17.05
2022-09-24T18:46:51.488Z,14.18
2022-09-24T18:49:20.166Z,14.52
2022-09-24T18:51:49.732Z,14.98
2022-09-24T18:54:19.465Z,13.25
2022-09-24T18:56:48.002Z,12.88
2022-09-24T18:59:19.209Z,12.43
2022-09-24T19:01:51.247Z,12.93
2022-09-24T19:04:20.577Z,12.27
2022-09-24T19:06:50.801Z,12.30
2022-09-24T19:09:21.041Z,12.70
2022-09-24T19:11:49.585Z,14.05
2022-09-24T19:14:18.673Z,12.55
2022-09-24T19:16:47.775Z,13.93
2022-09-24T19:19:16.793Z,15.82
2022-09-24T19:21:45.408Z,15.85
2022-09-24T19:24:13.674Z,17.42
2022-09-24T19:26:42.197Z,16.88
2022-09-24T19:29:10.939Z,16.13
2022-09-24T19:31:43.097Z,16.33
2022-09-24T19:34:13.348Z,16.33
2022-09-24T19:36:45.227Z,17.92
2022-09-24T19:39:16.329Z,16.63
2022-09-24T19:41:47.115Z,16.02
2022-09-24T19:44:17.030Z,19.05
2022-09-24T19:46:45.743Z,16.30
2022-09-24T19:49:14.739Z,16.50
2022-09-24T19:51:43.639Z,26.02
2022-09-24T19:54:12.228Z,27.80
2022-09-24T19:56:40.698Z,33.83
2022-09-24T19:59:10.517Z,24.75
2022-09-24T20:01:38.985Z,24.98
2022-09-24T20:04:08.160Z,25.23
2022-09-24T20:06:40.179Z,21.90
2022-09-24T20:09:08.688Z,21.60
2022-09-24T20:11:38.953Z,20.70
2022-09-24T20:14:09.864Z,22.42
2022-09-24T20:16:38.508Z,21.65
2022-09-24T20:19:07.001Z,22.02
2022-09-24T20:21:35.699Z,21.60
2022-09-24T20:24:05.317Z,23.70
2022-09-24T20:26:52.597Z,22.92
2022-09-24T20:29:23.243Z,22.63
2022-09-24T20:31:55.900Z,23.67
2022-09-24T20:34:32.361Z,23.70
2022-09-24T20:37:05.967Z,23.60
2022-09-24T20:39:34.592Z,22.98
2022-09-24T20:42:04.198Z,23.92
2022-09-24T20:44:34.867Z,25.15
2022-09-24T20:47:03.498Z,25.70
2022-09-24T20:49:33.403Z,24.27
2022-09-24T20:52:03.790Z,24.95
2022-09-24T20:54:34.387Z,25.75
2022-09-24T20:57:03.266Z,25.05
2022-09-24T20:59:32.523Z,25.20
2022-09-24T21:02:00.658Z,24.92
2022-09-24T21:04:29.120Z,25.88
2022-09-24T21:06:57.798Z,28.65
2022-09-24T21:09:26.105Z,28.50
2022-09-24T21:11:55.033Z,27.38
2022-09-24T21:14:23.530Z,25.63
2022-09-24T21:16:55.383Z,25.40
2022-09-24T21:19:25.637Z,24.35
2022-09-24T21:21:54.476Z,24.23
2022-09-24T21:24:26.365Z,23.83
2022-09-24T21:26:59.766Z,25.67
2022-09-24T21:29:28.215Z,25.63
2022-09-24T21:31:56.097Z,24.95
2022-09-24T21:34:30.006Z,25.65
2022-09-24T21:37:01.320Z,26.13
2022-09-24T21:39:32.885Z,24.10
2022-09-24T21:42:02.338Z,23.30
2022-09-24T21:44:34.459Z,23.42
2022-09-24T21:47:02.660Z,23.98
2022-09-24T21:49:34.436Z,23.13
2022-09-24T21:52:05.704Z,22.88
2022-09-24T21:54:35.427Z,22.00
2022-09-24T21:57:03.219Z,22.58
2022-09-24T21:59:49.656Z,24.42
2022-09-24T22:02:19.230Z,23.30
2022-09-24T22:04:48.162Z,23.27
2022-09-24T22:07:17.866Z,24.63
2022-09-24T22:09:46.227Z,22.77
2022-09-24T22:12:14.176Z,23.77
2022-09-24T22:14:42.171Z,24.27
2022-09-24T22:17:11.016Z,23.40
2022-09-24T22:19:38.863Z,23.73
2022-09-24T22:22:07.491Z,25.48
2022-09-24T22:24:37.042Z,23.90
2022-09-24T22:27:05.123Z,25.15
2022-09-24T22:29:33.613Z,25.70
2022-09-24T22:32:03.410Z,25.77
2022-09-24T22:34:49.999Z,25.30
2022-09-24T22:37:18.253Z,24.88
2022-09-24T22:39:46.646Z,26.33
2022-09-24T22:42:15.235Z,24.60
2022-09-24T22:44:44.010Z,26.73
2022-09-24T22:47:11.727Z,27.15
2022-09-24T22:49:39.599Z,27.05
2022-09-24T22:52:07.970Z,28.88
2022-09-24T22:54:36.143Z,28.63
2022-09-24T22:57:04.491Z,31.90
2022-09-24T22:59:33.154Z,31.33
2022-09-24T23:02:01.365Z,31.13
2022-09-24T23:04:30.282Z,31.02
2022-09-24T23:06:58.806Z,31.95
2022-09-24T23:09:27.292Z,30.33
2022-09-24T23:11:56.993Z,30.27
2022-09-24T23:14:25.790Z,31.88
2022-09-24T23:16:54.145Z,33.47
2022-09-24T23:19:22.370Z,34.35
2022-09-24T23:21:50.666Z,35.13
2022-09-24T23:24:20.690Z,33.95
2022-09-24T23:26:48.904Z,35.00
2022-09-24T23:29:17.259Z,35.65
2022-09-24T23:31:46.064Z,35.22
2022-09-24T23:34:14.819Z,35.08
2022-09-24T23:36:45.477Z,35.08
2022-09-24T23:39:14.396Z,33.70
2022-09-24T23:41:42.679Z,34.00
2022-09-24T23:44:11.576Z,33.65
2022-09-24T23:46:40.115Z,35.20
2022-09-24T23:49:08.015Z,34.97
2022-09-24T23:51:36.728Z,35.60
2022-09-24T23:54:05.303Z,36.75
2022-09-24T23:56:33.893Z,35.08
2022-09-24T23:59:02.229Z,35.10
